createdAt,value
2019-06-19T00:02:06.173Z,99711.46
2019-06-19T00:04:34.597Z,99705.23
2019-06-19T00:07:03.744Z,99707.28
2019-06-19T00:09:33.186Z,99706.36
2019-06-19T00:12:03.233Z,99705.25
2019-06-19T00:14:33.310Z,99705.00
2019-06-19T00:17:02.657Z,99699.75
2019-06-19T00:19:33.403Z,99699.62
2019-06-19T00:22:04.038Z,99695.64
2019-06-19T00:24:32.537Z,99696.87
2019-06-19T00:27:00.983Z,99695.71
2019-06-19T00:29:40.139Z,99686.95
2019-06-19T00:32:00.723Z,99690.05
2019-06-19T00:34:30.743Z,99687.69
2019-06-19T00:37:01.235Z,99684.73
2019-06-19T00:39:31.541Z,99690.08
2019-06-19T00:42:01.768Z,99689.05
2019-06-19T00:44:30.741Z,99688.19
2019-06-19T00:47:00.894Z,99686.39
2019-06-19T00:49:31.376Z,99688.81
2019-06-19T00:52:00.977Z,99680.77
2019-06-19T00:54:31.696Z,99683.53
2019-06-19T00:57:02.004Z,99680.33
2019-06-19T00:59:31.183Z,99688.55
2019-06-19T01:02:01.010Z,99696.64
2019-06-19T01:04:31.566Z,99701.64
2019-06-19T01:07:01.701Z,99690.92
2019-06-19T01:09:31.280Z,99691.78
2019-06-19T01:12:01.295Z,99690.32
2019-06-19T01:14:31.329Z,99688.48
2019-06-19T01:17:00.913Z,99688.28
2019-06-19T01:19:31.569Z,99688.05
2019-06-19T01:22:01.018Z,99681.63
2019-06-19T01:24:31.728Z,99672.75
2019-06-19T01:27:01.701Z,99678.20
2019-06-19T01:29:31.606Z,99681.01
2019-06-19T01:32:01.137Z,99684.44
2019-06-19T01:34:31.926Z,99669.06
2019-06-19T01:37:01.274Z,99670.95
2019-06-19T01:39:31.525Z,99671.27
2019-06-19T01:42:01.002Z,99673.75
2019-06-19T01:44:30.868Z,99676.39
2019-06-19T01:47:01.989Z,99681.41
2019-06-19T01:49:30.682Z,99672.04
2019-06-19T01:52:01.474Z,99667.94
2019-06-19T01:54:32.026Z,99661.87
2019-06-19T01:57:00.647Z,99656.53
2019-06-19T01:59:31.192Z,99664.80
2019-06-19T02:02:01.083Z,99661.16
2019-06-19T02:04:31.534Z,99661.70
2019-06-19T02:07:00.992Z,99658.45
2019-06-19T02:09:30.804Z,99663.08
2019-06-19T02:12:01.352Z,99661.35
2019-06-19T02:14:31.623Z,99658.77
2019-06-19T02:17:01.140Z,99655.30
2019-06-19T02:19:37.408Z,99654.66
2019-06-19T02:22:01.269Z,99649.99
2019-06-19T02:24:31.070Z,99645.04
2019-06-19T02:27:01.100Z,99647.04
2019-06-19T02:29:31.200Z,99636.33
2019-06-19T02:32:02.319Z,99642.68
2019-06-19T02:34:32.251Z,99635.36
2019-06-19T02:37:02.064Z,99627.60
2019-06-19T02:39:31.596Z,99634.13
2019-06-19T02:42:00.086Z,99630.81
2019-06-19T02:44:28.622Z,99633.47
2019-06-19T02:46:57.213Z,99633.38
2019-06-19T02:49:25.743Z,99625.42
2019-06-19T02:51:54.273Z,99628.53
2019-06-19T02:54:22.859Z,99628.27
2019-06-19T02:56:51.364Z,99637.00
2019-06-19T02:59:19.950Z,99636.77
2019-06-19T03:01:48.443Z,99633.25
2019-06-19T03:04:16.937Z,99633.81
2019-06-19T03:06:45.464Z,99627.52
2019-06-19T03:09:13.897Z,99632.79
2019-06-19T03:11:42.320Z,99632.19
2019-06-19T03:14:10.784Z,99631.02
2019-06-19T03:16:39.250Z,99628.75
2019-06-19T03:19:07.654Z,99635.64
2019-06-19T03:21:36.102Z,99631.80
2019-06-19T03:24:04.666Z,99644.48
2019-06-19T03:26:33.093Z,99641.75
2019-06-19T03:29:01.553Z,99642.77
2019-06-19T03:31:35.446Z,99650.99
2019-06-19T03:34:00.275Z,99643.57
2019-06-19T03:36:28.741Z,99645.52
2019-06-19T03:38:57.160Z,99651.37
2019-06-19T03:41:25.589Z,99642.23
2019-06-19T03:43:54.068Z,99644.38
2019-06-19T03:46:22.494Z,99648.36
2019-06-19T03:48:50.915Z,99648.91
2019-06-19T03:51:19.515Z,99650.27
2019-06-19T03:53:48.045Z,99649.84
2019-06-19T03:56:16.463Z,99648.38
2019-06-19T03:58:44.992Z,99651.11
2019-06-19T04:01:13.558Z,99647.14
2019-06-19T04:03:42.009Z,99655.02
2019-06-19T04:06:10.464Z,99663.95
2019-06-19T04:08:38.899Z,99664.95
2019-06-19T04:11:07.394Z,99661.30
2019-06-19T04:13:35.851Z,99662.42
2019-06-19T04:16:04.354Z,99664.86
2019-06-19T04:18:32.961Z,99669.65
2019-06-19T04:21:01.437Z,99660.42
2019-06-19T04:23:29.882Z,99658.89
2019-06-19T04:25:58.305Z,99652.50
2019-06-19T04:28:34.158Z,99648.49
2019-06-19T04:31:02.589Z,99644.03
2019-06-19T04:33:31.077Z,99645.83
2019-06-19T04:35:59.620Z,99654.80
2019-06-19T04:38:31.488Z,99646.73
2019-06-19T04:40:58.536Z,99652.17
2019-06-19T04:43:27.201Z,99651.84
2019-06-19T04:45:55.765Z,99651.94
2019-06-19T04:48:24.484Z,99643.92
2019-06-19T04:50:52.984Z,99638.61
2019-06-19T04:53:21.548Z,99638.88
2019-06-19T04:55:50.111Z,99645.63
2019-06-19T04:58:18.647Z,99649.63
2019-06-19T05:00:47.176Z,99646.97
2019-06-19T05:03:15.788Z,99644.51
2019-06-19T05:05:44.457Z,99637.63
2019-06-19T05:08:27.735Z,99642.44
2019-06-19T05:10:56.331Z,99635.83
2019-06-19T05:13:24.864Z,99623.34
2019-06-19T05:15:53.298Z,99631.62
2019-06-19T05:18:21.821Z,99618.72
2019-06-19T05:20:50.256Z,99622.64
2019-06-19T05:23:21.086Z,99626.54
2019-06-19T05:25:49.516Z,99622.17
2019-06-19T05:28:18.046Z,99628.86
2019-06-19T05:30:47.016Z,99633.80
2019-06-19T05:33:15.525Z,99638.23
2019-06-19T05:35:43.953Z,99633.59
2019-06-19T05:38:12.616Z,99635.56
2019-06-19T05:40:41.144Z,99642.09
2019-06-19T05:43:09.573Z,99628.32
2019-06-19T05:45:38.002Z,99618.74
2019-06-19T05:48:06.538Z,99615.81
2019-06-19T05:50:35.103Z,99620.54
2019-06-19T05:53:03.810Z,99618.00
2019-06-19T05:55:32.907Z,99620.39
2019-06-19T05:58:01.401Z,99619.09
2019-06-19T06:00:30.931Z,99611.64
2019-06-19T06:02:59.924Z,99616.77
2019-06-19T06:05:28.594Z,99613.04
2019-06-19T06:07:57.680Z,99606.81
2019-06-19T06:10:26.145Z,99597.66
2019-06-19T06:12:54.687Z,99599.02
2019-06-19T06:15:23.206Z,99606.44
2019-06-19T06:17:51.667Z,99602.66
2019-06-19T06:20:33.441Z,99601.98
2019-06-19T06:23:01.974Z,99603.81
2019-06-19T06:25:30.405Z,99610.17
2019-06-19T06:27:58.893Z,99613.61
2019-06-19T06:30:27.345Z,99615.06
2019-06-19T06:33:08.087Z,99612.44
2019-06-19T06:35:25.993Z,99612.77
2019-06-19T06:37:54.496Z,99608.87
2019-06-19T06:40:22.985Z,99609.56
2019-06-19T06:42:51.413Z,99615.42
2019-06-19T06:45:21.508Z,99615.10
2019-06-19T06:47:49.996Z,99619.44
2019-06-19T06:50:18.499Z,99614.69
2019-06-19T06:52:46.962Z,99612.31
2019-06-19T06:55:18.293Z,99611.17
2019-06-19T06:57:46.041Z,99605.67
2019-06-19T07:00:17.730Z,99603.55
2019-06-19T07:02:46.146Z,99599.61
2019-06-19T07:05:14.710Z,99599.47
2019-06-19T07:07:43.217Z,99595.71
2019-06-19T07:10:11.785Z,99600.62
2019-06-19T07:12:40.215Z,99598.34
2019-06-19T07:15:08.904Z,99598.03
2019-06-19T07:17:37.341Z,99598.88
2019-06-19T07:20:07.139Z,99593.62
2019-06-19T07:22:35.624Z,99586.95
2019-06-19T07:25:05.422Z,99585.53
2019-06-19T07:27:33.825Z,99582.37
2019-06-19T07:30:02.360Z,99582.54
2019-06-19T07:32:30.785Z,99588.26
2019-06-19T07:34:59.233Z,99590.13
2019-06-19T07:37:27.789Z,99585.83
2019-06-19T07:39:56.232Z,99586.28
2019-06-19T07:42:24.660Z,99592.75
2019-06-19T07:44:53.113Z,99596.92
2019-06-19T07:47:21.582Z,99588.26
2019-06-19T07:49:50.046Z,99585.19
2019-06-19T07:52:18.485Z,99586.23
2019-06-19T07:54:46.924Z,99586.77
2019-06-19T07:57:15.485Z,99592.09
2019-06-19T07:59:44.010Z,99589.02
2019-06-19T08:02:12.432Z,99587.30
2019-06-19T08:04:40.904Z,99585.70
2019-06-19T08:07:09.345Z,99588.98
2019-06-19T08:09:37.779Z,99588.95
2019-06-19T08:12:06.253Z,99586.39
2019-06-19T08:14:34.899Z,99580.20
2019-06-19T08:17:03.300Z,99568.64
2019-06-19T08:19:32.376Z,99573.16
2019-06-19T08:22:01.110Z,99572.86
2019-06-19T08:24:29.542Z,99571.41
2019-06-19T08:26:58.013Z,99549.73
2019-06-19T08:29:26.458Z,99549.33
2019-06-19T08:31:54.879Z,99556.21
2019-06-19T08:34:23.380Z,99548.98
2019-06-19T08:36:51.910Z,99543.09
2019-06-19T08:39:20.414Z,99541.73
2019-06-19T08:41:48.908Z,99545.48
2019-06-19T08:44:17.449Z,99546.38
2019-06-19T08:46:45.889Z,99547.47
2019-06-19T08:49:14.418Z,99557.13
2019-06-19T08:51:43.045Z,99546.92
2019-06-19T08:54:11.507Z,99541.53
2019-06-19T08:56:39.933Z,99535.96
2019-06-19T08:59:08.456Z,99537.16
2019-06-19T09:01:36.907Z,99541.91
2019-06-19T09:04:05.504Z,99543.73
2019-06-19T09:06:33.960Z,99548.19
2019-06-19T09:09:02.398Z,99547.53
2019-06-19T09:11:30.860Z,99552.56
2019-06-19T09:13:59.376Z,99544.03
2019-06-19T09:16:27.806Z,99543.05
2019-06-19T09:18:56.238Z,99544.41
2019-06-19T09:21:25.045Z,99546.71
2019-06-19T09:23:53.522Z,99550.14
2019-06-19T09:26:21.940Z,99548.25
2019-06-19T09:28:50.561Z,99553.97
2019-06-19T09:31:19.057Z,99553.84
2019-06-19T09:33:47.480Z,99537.13
2019-06-19T09:36:15.958Z,99524.09
2019-06-19T09:38:44.415Z,99540.12
2019-06-19T09:41:12.939Z,99529.26
2019-06-19T09:43:41.393Z,99525.66
2019-06-19T09:46:09.828Z,99522.13
2019-06-19T09:48:42.148Z,99512.25
2019-06-19T09:51:08.716Z,99522.95
2019-06-19T09:53:37.133Z,99524.41
2019-06-19T09:56:05.692Z,99517.20
2019-06-19T09:58:34.245Z,99511.77
2019-06-19T10:01:02.940Z,99506.72
2019-06-19T10:03:34.678Z,99502.15
2019-06-19T10:06:01.802Z,99500.81
2019-06-19T10:08:30.236Z,99498.52
2019-06-19T10:10:58.731Z,99479.53
2019-06-19T10:13:27.251Z,99488.00
2019-06-19T10:16:01.998Z,99492.66
2019-06-19T10:18:25.891Z,99489.99
2019-06-19T10:20:54.418Z,99492.45
2019-06-19T10:23:22.911Z,99483.73
2019-06-19T10:25:51.352Z,99485.66
2019-06-19T10:28:19.902Z,99488.92
2019-06-19T10:30:48.401Z,99485.83
2019-06-19T10:33:16.899Z,99483.19
2019-06-19T10:35:45.418Z,99483.06
2019-06-19T10:38:14.053Z,99494.17
2019-06-19T10:40:42.528Z,99488.95
2019-06-19T10:43:10.950Z,99490.97
2019-06-19T10:45:39.381Z,99492.76
2019-06-19T10:48:07.881Z,99489.69
2019-06-19T10:50:36.328Z,99488.77
2019-06-19T10:53:04.900Z,99487.08
2019-06-19T10:55:33.408Z,99487.02
2019-06-19T10:58:01.906Z,99489.27
2019-06-19T11:00:30.615Z,99494.80
2019-06-19T11:02:59.045Z,99496.67
2019-06-19T11:05:39.248Z,99491.00
2019-06-19T11:07:57.801Z,99506.98
2019-06-19T11:10:26.233Z,99503.45
2019-06-19T11:12:54.835Z,99504.27
2019-06-19T11:15:23.500Z,99506.12
2019-06-19T11:17:52.043Z,99497.75
2019-06-19T11:20:20.977Z,99494.34
2019-06-19T11:22:49.484Z,99497.98
2019-06-19T11:25:17.991Z,99500.73
2019-06-19T11:27:46.436Z,99507.49
2019-06-19T11:30:15.912Z,99511.36
2019-06-19T11:32:44.348Z,99505.11
2019-06-19T11:35:13.063Z,99506.59
2019-06-19T11:37:41.606Z,99502.89
2019-06-19T11:40:11.104Z,99511.36
2019-06-19T11:42:39.635Z,99516.50
2019-06-19T11:45:08.526Z,99521.34
2019-06-19T11:47:36.954Z,99523.23
2019-06-19T11:50:06.865Z,99516.59
2019-06-19T11:52:35.366Z,99515.25
2019-06-19T11:55:05.761Z,99514.39
2019-06-19T11:57:34.199Z,99508.77
2019-06-19T12:00:05.186Z,99509.33
2019-06-19T12:02:33.635Z,99511.60
2019-06-19T12:05:02.353Z,99504.83
2019-06-19T12:07:30.870Z,99502.73
2019-06-19T12:09:59.284Z,99505.59
2019-06-19T12:12:27.739Z,99502.40
2019-06-19T12:14:56.168Z,99503.28
2019-06-19T12:17:24.804Z,99505.61
2019-06-19T12:19:53.286Z,99503.58
2019-06-19T12:22:21.722Z,99500.17
2019-06-19T12:24:50.155Z,99502.45
2019-06-19T12:27:18.612Z,99494.31
2019-06-19T12:29:47.039Z,99494.28
2019-06-19T12:32:15.556Z,99494.31
2019-06-19T12:34:44.023Z,99495.30
2019-06-19T12:37:12.481Z,99486.72
2019-06-19T12:39:40.983Z,99476.64
2019-06-19T12:42:09.450Z,99475.68
2019-06-19T12:44:37.882Z,99468.79
2019-06-19T12:47:06.323Z,99471.00
2019-06-19T12:49:34.801Z,99463.59
2019-06-19T12:52:03.311Z,99451.84
2019-06-19T12:54:31.751Z,99456.01
2019-06-19T12:57:00.309Z,99451.14
2019-06-19T12:59:28.843Z,99462.57
2019-06-19T13:01:57.485Z,99461.74
2019-06-19T13:04:26.090Z,99459.48
2019-06-19T13:06:56.061Z,99465.48
2019-06-19T13:09:24.607Z,99463.91
2019-06-19T13:11:53.165Z,99468.30
2019-06-19T13:14:21.584Z,99467.42
2019-06-19T13:16:50.069Z,99466.52
2019-06-19T13:19:18.529Z,99471.41
2019-06-19T13:21:46.953Z,99457.80
2019-06-19T13:24:15.378Z,99471.44
2019-06-19T13:26:43.839Z,99467.33
2019-06-19T13:29:12.344Z,99465.96
2019-06-19T13:31:40.797Z,99462.27
2019-06-19T13:34:09.323Z,99464.69
2019-06-19T13:36:37.774Z,99469.95
2019-06-19T13:39:07.519Z,99469.88
2019-06-19T13:41:35.989Z,99465.05
2019-06-19T13:44:04.683Z,99467.28
2019-06-19T13:46:33.117Z,99462.05
2019-06-19T13:49:01.577Z,99461.09
2019-06-19T13:51:30.002Z,99455.48
2019-06-19T13:53:58.450Z,99451.03
2019-06-19T13:56:27.035Z,99453.25
2019-06-19T13:58:55.484Z,99454.42
2019-06-19T14:01:23.911Z,99450.93
2019-06-19T14:03:52.409Z,99448.30
2019-06-19T14:06:20.834Z,99444.01
2019-06-19T14:08:49.272Z,99443.41
2019-06-19T14:11:17.722Z,99441.67
2019-06-19T14:13:46.167Z,99438.53
2019-06-19T14:16:14.622Z,99429.33
2019-06-19T14:18:43.090Z,99428.75
2019-06-19T14:21:11.702Z,99426.89
2019-06-19T14:23:40.180Z,99417.52
2019-06-19T14:26:08.628Z,99427.73
2019-06-19T14:28:37.102Z,99413.73
2019-06-19T14:31:05.609Z,99418.95
2019-06-19T14:33:34.076Z,99409.70
2019-06-19T14:36:02.524Z,99409.20
2019-06-19T14:38:33.629Z,99408.28
2019-06-19T14:41:01.128Z,99404.92
2019-06-19T14:43:29.564Z,99392.58
2019-06-19T14:45:57.988Z,99395.12
2019-06-19T14:48:26.520Z,99391.50
2019-06-19T14:50:54.958Z,99390.81
2019-06-19T14:53:23.466Z,99390.64
2019-06-19T14:55:52.025Z,99385.02
2019-06-19T14:58:20.450Z,99379.88
2019-06-19T15:00:59.408Z,99373.79
2019-06-19T15:03:27.954Z,99365.00
2019-06-19T15:05:56.446Z,99360.77
2019-06-19T15:08:24.987Z,99363.28
2019-06-19T15:10:53.472Z,99354.72
2019-06-19T15:13:21.898Z,99351.55
2019-06-19T15:15:50.471Z,99344.17
2019-06-19T15:18:19.182Z,99342.91
2019-06-19T15:20:47.605Z,99344.25
2019-06-19T15:23:16.236Z,99343.62
2019-06-19T15:25:44.739Z,99342.75
2019-06-19T15:28:13.944Z,99344.94
2019-06-19T15:30:42.392Z,99348.97
2019-06-19T15:33:10.813Z,99344.13
2019-06-19T15:35:39.318Z,99346.99
2019-06-19T15:38:12.110Z,99349.64
2019-06-19T15:40:38.017Z,99352.29
2019-06-19T15:43:06.424Z,99346.92
2019-06-19T15:45:34.958Z,99350.23
2019-06-19T15:48:03.395Z,99343.99
2019-06-19T15:50:31.828Z,99344.09
2019-06-19T15:53:00.277Z,99341.78
2019-06-19T15:55:28.703Z,99340.81
2019-06-19T15:57:57.210Z,99343.99
2019-06-19T16:00:26.850Z,99341.44
2019-06-19T16:02:55.319Z,99333.22
2019-06-19T16:05:24.184Z,99338.16
2019-06-19T16:07:52.723Z,99333.81
2019-06-19T16:10:21.405Z,99329.95
2019-06-19T16:12:49.838Z,99337.53
2019-06-19T16:15:18.710Z,99340.23
2019-06-19T16:17:47.291Z,99332.88
2019-06-19T16:20:16.394Z,99329.38
2019-06-19T16:22:44.955Z,99324.61
2019-06-19T16:25:13.782Z,99324.78
2019-06-19T16:27:42.349Z,99329.53
2019-06-19T16:30:13.446Z,99319.88
2019-06-19T16:32:41.882Z,99326.42
2019-06-19T16:35:10.862Z,99327.64
2019-06-19T16:37:39.389Z,99328.58
2019-06-19T16:40:12.661Z,99320.23
2019-06-19T16:42:41.189Z,99324.09
2019-06-19T16:45:11.589Z,99320.07
2019-06-19T16:47:40.105Z,99321.61
2019-06-19T16:50:10.901Z,99318.70
2019-06-19T16:52:39.488Z,99315.88
2019-06-19T16:55:09.894Z,99320.09
2019-06-19T16:57:38.385Z,99317.48
2019-06-19T17:00:10.140Z,99309.11
2019-06-19T17:02:38.671Z,99307.87
2019-06-19T17:05:08.368Z,99310.04
2019-06-19T17:07:36.930Z,99305.66
2019-06-19T17:10:09.169Z,99305.71
2019-06-19T17:12:37.602Z,99306.83
2019-06-19T17:15:07.802Z,99304.34
2019-06-19T17:17:36.296Z,99303.86
2019-06-19T17:20:07.441Z,99308.07
2019-06-19T17:22:35.942Z,99303.92
2019-06-19T17:25:06.253Z,99311.64
2019-06-19T17:27:34.754Z,99312.25
2019-06-19T17:30:03.463Z,99312.59
2019-06-19T17:32:31.907Z,99312.69
2019-06-19T17:35:00.331Z,99309.88
2019-06-19T17:37:28.793Z,99311.53
2019-06-19T17:39:57.222Z,99316.05
2019-06-19T17:42:25.661Z,99316.89
2019-06-19T17:44:54.111Z,99328.97
2019-06-19T17:47:22.542Z,99328.28
2019-06-19T17:49:50.998Z,99332.75
2019-06-19T17:52:19.477Z,99339.87
2019-06-19T17:54:47.914Z,99344.79
2019-06-19T17:57:16.458Z,99345.14
2019-06-19T17:59:45.022Z,99348.55
2019-06-19T18:02:13.443Z,99347.77
2019-06-19T18:04:41.879Z,99342.98
2019-06-19T18:07:10.351Z,99348.91
2019-06-19T18:09:39.401Z,99350.91
2019-06-19T18:12:08.148Z,99347.70
2019-06-19T18:14:36.784Z,99351.00
2019-06-19T18:17:05.210Z,99349.41
2019-06-19T18:19:33.643Z,99349.47
2019-06-19T18:22:02.107Z,99343.16
2019-06-19T18:24:30.535Z,99353.43
2019-06-19T18:26:58.990Z,99358.70
2019-06-19T18:29:27.650Z,99361.33
2019-06-19T18:31:56.095Z,99360.19
2019-06-19T18:34:24.542Z,99370.58
2019-06-19T18:36:54.088Z,99375.45
2019-06-19T18:39:22.516Z,99381.92
2019-06-19T18:41:51.018Z,99384.00
2019-06-19T18:44:19.490Z,99392.64
2019-06-19T18:46:47.913Z,99397.13
2019-06-19T18:49:16.361Z,99394.04
2019-06-19T18:51:44.845Z,99401.06
2019-06-19T18:54:13.259Z,99399.77
2019-06-19T18:56:41.706Z,99396.00
2019-06-19T18:59:10.220Z,99392.31
2019-06-19T19:01:38.645Z,99391.75
2019-06-19T19:04:07.208Z,99393.97
2019-06-19T19:06:35.848Z,99390.20
2019-06-19T19:09:06.328Z,99394.85
2019-06-19T19:11:34.753Z,99400.20
2019-06-19T19:14:03.445Z,99392.85
2019-06-19T19:16:31.954Z,99388.96
2019-06-19T19:19:00.533Z,99396.46
2019-06-19T19:21:29.379Z,99403.34
2019-06-19T19:23:57.892Z,99406.25
2019-06-19T19:26:26.319Z,99403.30
2019-06-19T19:28:54.981Z,99401.38
2019-06-19T19:31:23.403Z,99407.63
2019-06-19T19:33:51.830Z,99399.54
2019-06-19T19:36:25.781Z,99400.17
2019-06-19T19:38:50.506Z,99400.91
2019-06-19T19:41:32.694Z,99409.80
2019-06-19T19:43:49.373Z,99405.73
2019-06-19T19:46:17.872Z,99409.47
2019-06-19T19:48:47.468Z,99411.73
2019-06-19T19:51:15.995Z,99419.34
2019-06-19T19:53:44.517Z,99420.38
2019-06-19T19:56:13.093Z,99430.94
2019-06-19T19:58:41.655Z,99434.35
2019-06-19T20:01:10.225Z,99438.92
2019-06-19T20:03:38.731Z,99436.71
2019-06-19T20:06:07.227Z,99443.50
2019-06-19T20:08:35.755Z,99443.77
2019-06-19T20:11:04.334Z,99446.73
2019-06-19T20:13:33.027Z,99443.84
2019-06-19T20:16:01.666Z,99448.91
2019-06-19T20:18:30.062Z,99451.27
2019-06-19T20:20:58.542Z,99451.43
2019-06-19T20:23:27.008Z,99456.89
2019-06-19T20:25:55.535Z,99458.55
2019-06-19T20:28:23.994Z,99460.78
2019-06-19T20:30:52.496Z,99468.70
2019-06-19T20:33:20.969Z,99473.83
2019-06-19T20:35:49.498Z,99480.23
2019-06-19T20:38:17.992Z,99484.09
2019-06-19T20:41:02.091Z,99480.77
2019-06-19T20:43:16.654Z,99484.17
2019-06-19T20:45:45.169Z,99471.89
2019-06-19T20:48:13.684Z,99468.28
2019-06-19T20:50:42.422Z,99488.73
2019-06-19T20:53:10.898Z,99498.22
2019-06-19T20:55:39.344Z,99498.06
2019-06-19T20:58:07.860Z,99493.58
2019-06-19T21:00:36.326Z,99498.03
2019-06-19T21:03:05.027Z,99494.85
2019-06-19T21:05:33.499Z,99501.10
2019-06-19T21:08:01.983Z,99508.89
2019-06-19T21:10:30.603Z,99496.69
2019-06-19T21:12:59.112Z,99492.95
2019-06-19T21:15:27.606Z,99491.88
2019-06-19T21:17:56.080Z,99493.66
2019-06-19T21:20:24.787Z,99488.42
2019-06-19T21:22:53.518Z,99499.95
2019-06-19T21:25:22.242Z,99509.21
2019-06-19T21:27:50.669Z,99507.42
2019-06-19T21:30:19.749Z,99505.85
2019-06-19T21:32:48.326Z,99506.81
2019-06-19T21:35:17.898Z,99506.37
2019-06-19T21:37:46.340Z,99504.13
2019-06-19T21:40:15.032Z,99505.52
2019-06-19T21:42:43.499Z,99503.27
2019-06-19T21:45:12.190Z,99506.27
2019-06-19T21:47:40.717Z,99499.06
2019-06-19T21:50:09.794Z,99502.26
2019-06-19T21:52:39.166Z,99491.00
2019-06-19T21:55:08.376Z,99478.78
2019-06-19T21:57:36.800Z,99470.94
2019-06-19T22:00:11.271Z,99481.91
2019-06-19T22:02:39.727Z,99483.11
2019-06-19T22:05:08.515Z,99495.25
2019-06-19T22:07:36.940Z,99503.60
2019-06-19T22:10:06.922Z,99511.73
2019-06-19T22:12:35.412Z,99516.16
2019-06-19T22:15:05.291Z,99516.92
2019-06-19T22:17:33.798Z,99518.43
2019-06-19T22:20:02.297Z,99528.95
2019-06-19T22:22:30.744Z,99529.01
2019-06-19T22:24:59.296Z,99522.95
2019-06-19T22:27:27.705Z,99528.60
2019-06-19T22:29:56.242Z,99528.42
2019-06-19T22:32:24.708Z,99530.64
2019-06-19T22:34:53.303Z,99523.67
2019-06-19T22:37:21.727Z,99527.42
2019-06-19T22:39:50.184Z,99528.72
2019-06-19T22:42:18.604Z,99536.42
2019-06-19T22:44:47.033Z,99546.85
2019-06-19T22:47:15.560Z,99555.44
2019-06-19T22:49:44.005Z,99553.38
2019-06-19T22:52:12.481Z,99551.72
2019-06-19T22:54:40.948Z,99552.51
2019-06-19T22:57:09.558Z,99557.72
2019-06-19T22:59:38.104Z,99563.98
2019-06-19T23:02:14.055Z,99576.91
2019-06-19T23:04:42.525Z,99573.03
2019-06-19T23:07:11.022Z,99575.58
2019-06-19T23:09:39.639Z,99582.31
2019-06-19T23:12:08.059Z,99580.40
2019-06-19T23:14:36.551Z,99587.02
2019-06-19T23:17:05.014Z,99582.69
2019-06-19T23:19:33.517Z,99595.23
2019-06-19T23:22:01.947Z,99600.23
2019-06-19T23:24:30.524Z,99600.73
2019-06-19T23:26:58.949Z,99609.58
2019-06-19T23:29:27.390Z,99610.66
2019-06-19T23:31:56.079Z,99619.69
2019-06-19T23:34:24.495Z,99620.24
2019-06-19T23:36:54.429Z,99612.52
2019-06-19T23:39:22.953Z,99608.45
2019-06-19T23:41:51.472Z,99603.96
2019-06-19T23:44:19.896Z,99604.57
2019-06-19T23:46:48.348Z,99596.41
2019-06-19T23:49:16.782Z,99599.38
2019-06-19T23:51:45.206Z,99607.36
2019-06-19T23:54:13.664Z,99609.63
2019-06-19T23:56:42.096Z,99601.67
2019-06-19T23:59:10.573Z,99603.94
